sensor_id;sensor_type;location;lat;lon;timestamp;P1;durP1;ratioP1;P2;durP2;ratioP2
25509;SDS011;13413;52.336;21.200;2022-09-03T00:00:15;8.70;;;5.90;;
25509;SDS011;13413;52.336;21.200;2022-09-03T00:03:37;8.60;;;5.70;;
25509;SDS011;13413;52.336;21.200;2022-09-03T00:07:02;7.80;;;5.40;;
25509;SDS011;13413;52.336;21.200;2022-09-03T00:10:26;13.70;;;5.40;;
25509;SDS011;13413;52.336;21.200;2022-09-03T00:13:53;7.80;;;4.80;;
25509;SDS011;13413;52.336;21.200;2022-09-03T00:17:21;9.30;;;5.30;;
25509;SDS011;13413;52.336;21.200;2022-09-03T00:24:08;8.50;;;4.60;;
25509;SDS011;13413;52.336;21.200;2022-09-03T00:27:31;6.30;;;4.50;;
25509;SDS011;13413;52.336;21.200;2022-09-03T00:30:58;8.80;;;4.90;;
25509;SDS011;13413;52.336;21.200;2022-09-03T00:34:22;13.20;;;4.80;;
25509;SDS011;13413;52.336;21.200;2022-09-03T00:37:47;9.20;;;4.40;;
25509;SDS011;13413;52.336;21.200;2022-09-03T00:41:10;9.30;;;4.30;;
25509;SDS011;13413;52.336;21.200;2022-09-03T00:48:20;8.00;;;4.80;;
25509;SDS011;13413;52.336;21.200;2022-09-03T00:51:43;6.10;;;3.90;;
25509;SDS011;13413;52.336;21.200;2022-09-03T00:55:10;7.60;;;4.50;;
25509;SDS011;13413;52.336;21.200;2022-09-03T00:58:42;8.70;;;4.20;;
25509;SDS011;13413;52.336;21.200;2022-09-03T01:02:12;8.20;;;4.20;;
25509;SDS011;13413;52.336;21.200;2022-09-03T01:05:44;9.50;;;5.00;;
25509;SDS011;13413;52.336;21.200;2022-09-03T01:09:15;7.90;;;4.40;;
25509;SDS011;13413;52.336;21.200;2022-09-03T01:12:48;11.10;;;4.50;;
25509;SDS011;13413;52.336;21.200;2022-09-03T01:16:15;5.80;;;4.10;;
25509;SDS011;13413;52.336;21.200;2022-09-03T01:19:50;9.10;;;4.20;;
25509;SDS011;13413;52.336;21.200;2022-09-03T01:27:10;6.90;;;4.00;;
25509;SDS011;13413;52.336;21.200;2022-09-03T01:30:38;6.60;;;4.60;;
25509;SDS011;13413;52.336;21.200;2022-09-03T01:33:59;9.90;;;4.10;;
25509;SDS011;13413;52.336;21.200;2022-09-03T01:37:33;9.30;;;4.10;;
25509;SDS011;13413;52.336;21.200;2022-09-03T01:41:05;6.80;;;4.30;;
25509;SDS011;13413;52.336;21.200;2022-09-03T01:44:37;7.50;;;4.10;;
25509;SDS011;13413;52.336;21.200;2022-09-03T01:48:09;8.60;;;4.60;;
25509;SDS011;13413;52.336;21.200;2022-09-03T01:51:41;7.10;;;4.40;;
25509;SDS011;13413;52.336;21.200;2022-09-03T01:55:04;6.80;;;4.00;;
25509;SDS011;13413;52.336;21.200;2022-09-03T01:58:32;6.10;;;3.90;;
25509;SDS011;13413;52.336;21.200;2022-09-03T02:01:57;5.90;;;4.10;;
25509;SDS011;13413;52.336;21.200;2022-09-03T02:05:21;6.20;;;4.00;;
25509;SDS011;13413;52.336;21.200;2022-09-03T02:08:42;5.20;;;3.70;;
25509;SDS011;13413;52.336;21.200;2022-09-03T02:12:04;6.00;;;4.00;;
25509;SDS011;13413;52.336;21.200;2022-09-03T02:15:31;8.00;;;4.10;;
25509;SDS011;13413;52.336;21.200;2022-09-03T02:18:51;7.10;;;4.50;;
25509;SDS011;13413;52.336;21.200;2022-09-03T02:22:16;8.90;;;4.70;;
25509;SDS011;13413;52.336;21.200;2022-09-03T02:25:36;6.90;;;4.40;;
25509;SDS011;13413;52.336;21.200;2022-09-03T02:29:00;9.30;;;4.60;;
25509;SDS011;13413;52.336;21.200;2022-09-03T02:32:20;8.10;;;4.40;;
25509;SDS011;13413;52.336;21.200;2022-09-03T02:35:39;4.90;;;3.80;;
25509;SDS011;13413;52.336;21.200;2022-09-03T02:38:59;8.40;;;4.80;;
25509;SDS011;13413;52.336;21.200;2022-09-03T02:42:19;7.60;;;4.40;;
25509;SDS011;13413;52.336;21.200;2022-09-03T02:45:40;8.10;;;4.00;;
25509;SDS011;13413;52.336;21.200;2022-09-03T02:52:24;6.70;;;4.40;;
25509;SDS011;13413;52.336;21.200;2022-09-03T02:55:43;8.50;;;4.20;;
25509;SDS011;13413;52.336;21.200;2022-09-03T02:59:02;7.20;;;4.30;;
25509;SDS011;13413;52.336;21.200;2022-09-03T03:02:41;7.20;;;4.20;;
25509;SDS011;13413;52.336;21.200;2022-09-03T03:06:02;7.60;;;4.60;;
25509;SDS011;13413;52.336;21.200;2022-09-03T03:09:23;7.10;;;4.60;;
25509;SDS011;13413;52.336;21.200;2022-09-03T03:12:42;6.50;;;4.80;;
25509;SDS011;13413;52.336;21.200;2022-09-03T03:16:03;6.70;;;5.00;;
25509;SDS011;13413;52.336;21.200;2022-09-03T03:19:22;7.70;;;5.00;;
25509;SDS011;13413;52.336;21.200;2022-09-03T03:22:42;10.60;;;5.20;;
25509;SDS011;13413;52.336;21.200;2022-09-03T03:26:03;5.80;;;4.60;;
25509;SDS011;13413;52.336;21.200;2022-09-03T03:29:24;10.10;;;5.20;;
25509;SDS011;13413;52.336;21.200;2022-09-03T03:32:43;7.00;;;4.80;;
25509;SDS011;13413;52.336;21.200;2022-09-03T03:36:04;7.20;;;5.20;;
25509;SDS011;13413;52.336;21.200;2022-09-03T03:39:26;8.70;;;4.90;;
25509;SDS011;13413;52.336;21.200;2022-09-03T03:42:45;9.70;;;4.20;;
25509;SDS011;13413;52.336;21.200;2022-09-03T03:46:05;7.90;;;4.70;;
25509;SDS011;13413;52.336;21.200;2022-09-03T03:49:24;8.30;;;5.00;;
25509;SDS011;13413;52.336;21.200;2022-09-03T03:52:44;6.50;;;4.70;;
25509;SDS011;13413;52.336;21.200;2022-09-03T03:56:04;6.60;;;4.50;;
25509;SDS011;13413;52.336;21.200;2022-09-03T03:59:25;7.10;;;4.60;;
25509;SDS011;13413;52.336;21.200;2022-09-03T04:02:44;6.60;;;4.70;;
25509;SDS011;13413;52.336;21.200;2022-09-03T04:06:05;6.40;;;4.50;;
25509;SDS011;13413;52.336;21.200;2022-09-03T04:09:24;7.90;;;4.50;;
25509;SDS011;13413;52.336;21.200;2022-09-03T04:12:44;6.00;;;4.00;;
25509;SDS011;13413;52.336;21.200;2022-09-03T04:16:04;5.60;;;4.40;;
25509;SDS011;13413;52.336;21.200;2022-09-03T04:19:24;6.70;;;4.80;;
25509;SDS011;13413;52.336;21.200;2022-09-03T04:22:45;11.70;;;5.10;;
25509;SDS011;13413;52.336;21.200;2022-09-03T04:26:05;6.80;;;4.60;;
25509;SDS011;13413;52.336;21.200;2022-09-03T04:29:25;12.40;;;4.90;;
25509;SDS011;13413;52.336;21.200;2022-09-03T04:32:44;8.70;;;4.20;;
25509;SDS011;13413;52.336;21.200;2022-09-03T04:36:06;10.80;;;4.90;;
25509;SDS011;13413;52.336;21.200;2022-09-03T04:39:26;7.60;;;4.80;;
25509;SDS011;13413;52.336;21.200;2022-09-03T04:42:46;5.10;;;3.80;;
25509;SDS011;13413;52.336;21.200;2022-09-03T04:46:06;7.40;;;4.00;;
25509;SDS011;13413;52.336;21.200;2022-09-03T04:52:45;8.80;;;4.20;;
25509;SDS011;13413;52.336;21.200;2022-09-03T04:56:11;10.60;;;4.40;;
25509;SDS011;13413;52.336;21.200;2022-09-03T04:59:31;10.40;;;5.10;;
25509;SDS011;13413;52.336;21.200;2022-09-03T05:02:50;5.80;;;4.20;;
25509;SDS011;13413;52.336;21.200;2022-09-03T05:06:10;6.40;;;4.50;;
25509;SDS011;13413;52.336;21.200;2022-09-03T05:09:30;8.90;;;4.90;;
25509;SDS011;13413;52.336;21.200;2022-09-03T05:12:58;7.00;;;4.50;;
25509;SDS011;13413;52.336;21.200;2022-09-03T05:16:20;7.60;;;5.00;;
25509;SDS011;13413;52.336;21.200;2022-09-03T05:19:40;10.60;;;5.20;;
25509;SDS011;13413;52.336;21.200;2022-09-03T05:23:02;6.10;;;4.30;;
25509;SDS011;13413;52.336;21.200;2022-09-03T05:26:23;6.90;;;4.60;;
25509;SDS011;13413;52.336;21.200;2022-09-03T05:29:43;8.80;;;5.20;;
25509;SDS011;13413;52.336;21.200;2022-09-03T05:33:02;6.00;;;3.90;;
25509;SDS011;13413;52.336;21.200;2022-09-03T05:39:59;8.10;;;4.00;;
25509;SDS011;13413;52.336;21.200;2022-09-03T05:43:18;8.50;;;4.60;;
25509;SDS011;13413;52.336;21.200;2022-09-03T05:46:37;8.20;;;4.50;;
25509;SDS011;13413;52.336;21.200;2022-09-03T05:49:57;12.60;;;4.40;;
25509;SDS011;13413;52.336;21.200;2022-09-03T05:53:17;7.00;;;4.40;;
25509;SDS011;13413;52.336;21.200;2022-09-03T05:56:36;7.70;;;5.00;;
25509;SDS011;13413;52.336;21.200;2022-09-03T06:00:09;11.30;;;4.80;;
25509;SDS011;13413;52.336;21.200;2022-09-03T06:03:28;9.30;;;4.40;;
25509;SDS011;13413;52.336;21.200;2022-09-03T06:06:48;6.40;;;4.50;;
25509;SDS011;13413;52.336;21.200;2022-09-03T06:10:08;7.30;;;4.00;;
25509;SDS011;13413;52.336;21.200;2022-09-03T06:13:27;6.30;;;3.90;;
25509;SDS011;13413;52.336;21.200;2022-09-03T06:16:47;13.10;;;4.40;;
25509;SDS011;13413;52.336;21.200;2022-09-03T06:20:08;10.70;;;5.80;;
25509;SDS011;13413;52.336;21.200;2022-09-03T06:23:27;7.20;;;4.40;;
25509;SDS011;13413;52.336;21.200;2022-09-03T06:26:48;9.20;;;4.60;;
25509;SDS011;13413;52.336;21.200;2022-09-03T06:30:08;11.80;;;4.30;;
25509;SDS011;13413;52.336;21.200;2022-09-03T06:33:29;9.80;;;4.40;;
25509;SDS011;13413;52.336;21.200;2022-09-03T06:36:50;8.40;;;4.50;;
25509;SDS011;13413;52.336;21.200;2022-09-03T06:40:10;6.90;;;3.80;;
25509;SDS011;13413;52.336;21.200;2022-09-03T06:43:32;9.10;;;4.20;;
25509;SDS011;13413;52.336;21.200;2022-09-03T06:46:52;12.70;;;4.80;;
25509;SDS011;13413;52.336;21.200;2022-09-03T06:50:11;6.10;;;3.60;;
25509;SDS011;13413;52.336;21.200;2022-09-03T06:53:31;7.50;;;4.00;;
25509;SDS011;13413;52.336;21.200;2022-09-03T06:56:52;11.90;;;5.40;;
25509;SDS011;13413;52.336;21.200;2022-09-03T07:00:13;9.50;;;5.50;;
25509;SDS011;13413;52.336;21.200;2022-09-03T07:03:35;10.20;;;5.20;;
25509;SDS011;13413;52.336;21.200;2022-09-03T07:06:54;7.80;;;4.30;;
25509;SDS011;13413;52.336;21.200;2022-09-03T07:10:15;8.30;;;4.30;;
25509;SDS011;13413;52.336;21.200;2022-09-03T07:13:33;8.40;;;4.40;;
25509;SDS011;13413;52.336;21.200;2022-09-03T07:16:54;9.00;;;3.50;;
25509;SDS011;13413;52.336;21.200;2022-09-03T07:20:15;8.20;;;3.90;;
25509;SDS011;13413;52.336;21.200;2022-09-03T07:23:34;12.90;;;4.40;;
25509;SDS011;13413;52.336;21.200;2022-09-03T07:26:56;4.40;;;3.60;;
25509;SDS011;13413;52.336;21.200;2022-09-03T07:30:16;6.90;;;3.30;;
25509;SDS011;13413;52.336;21.200;2022-09-03T07:33:35;7.40;;;4.30;;
25509;SDS011;13413;52.336;21.200;2022-09-03T07:40:29;10.30;;;3.90;;
25509;SDS011;13413;52.336;21.200;2022-09-03T07:43:49;5.10;;;3.40;;
25509;SDS011;13413;52.336;21.200;2022-09-03T07:47:08;7.40;;;3.00;;
25509;SDS011;13413;52.336;21.200;2022-09-03T07:50:26;11.60;;;3.60;;
25509;SDS011;13413;52.336;21.200;2022-09-03T07:53:46;9.90;;;3.80;;
25509;SDS011;13413;52.336;21.200;2022-09-03T07:57:04;8.20;;;3.60;;
25509;SDS011;13413;52.336;21.200;2022-09-03T08:00:23;9.20;;;3.90;;
25509;SDS011;13413;52.336;21.200;2022-09-03T08:03:44;6.70;;;3.30;;
25509;SDS011;13413;52.336;21.200;2022-09-03T08:07:04;8.20;;;3.70;;
25509;SDS011;13413;52.336;21.200;2022-09-03T08:10:25;9.10;;;3.40;;
25509;SDS011;13413;52.336;21.200;2022-09-03T08:13:44;28.20;;;20.20;;
25509;SDS011;13413;52.336;21.200;2022-09-03T08:17:05;10.70;;;8.50;;
25509;SDS011;13413;52.336;21.200;2022-09-03T08:20:23;6.00;;;3.60;;
25509;SDS011;13413;52.336;21.200;2022-09-03T08:23:44;10.30;;;3.80;;
25509;SDS011;13413;52.336;21.200;2022-09-03T08:27:05;10.90;;;3.40;;
25509;SDS011;13413;52.336;21.200;2022-09-03T08:30:25;16.20;;;3.10;;
25509;SDS011;13413;52.336;21.200;2022-09-03T08:33:45;5.50;;;2.50;;
25509;SDS011;13413;52.336;21.200;2022-09-03T08:37:06;5.80;;;2.90;;
25509;SDS011;13413;52.336;21.200;2022-09-03T08:40:26;6.70;;;2.90;;
25509;SDS011;13413;52.336;21.200;2022-09-03T08:43:53;5.00;;;2.50;;
25509;SDS011;13413;52.336;21.200;2022-09-03T08:47:27;3.20;;;2.30;;
25509;SDS011;13413;52.336;21.200;2022-09-03T08:50:50;5.80;;;2.50;;
25509;SDS011;13413;52.336;21.200;2022-09-03T08:54:12;3.80;;;1.90;;
25509;SDS011;13413;52.336;21.200;2022-09-03T08:57:35;4.90;;;1.80;;
25509;SDS011;13413;52.336;21.200;2022-09-03T09:01:03;6.60;;;2.30;;
25509;SDS011;13413;52.336;21.200;2022-09-03T09:04:33;3.60;;;2.30;;
25509;SDS011;13413;52.336;21.200;2022-09-03T09:08:05;3.90;;;1.50;;
25509;SDS011;13413;52.336;21.200;2022-09-03T09:11:45;5.60;;;2.20;;
25509;SDS011;13413;52.336;21.200;2022-09-03T09:15:16;7.10;;;2.80;;
25509;SDS011;13413;52.336;21.200;2022-09-03T09:18:47;2.00;;;1.70;;
25509;SDS011;13413;52.336;21.200;2022-09-03T09:22:20;8.20;;;3.00;;
25509;SDS011;13413;52.336;21.200;2022-09-03T09:25:46;4.30;;;2.90;;
25509;SDS011;13413;52.336;21.200;2022-09-03T09:29:07;2.80;;;2.20;;
25509;SDS011;13413;52.336;21.200;2022-09-03T09:32:26;5.40;;;2.50;;
25509;SDS011;13413;52.336;21.200;2022-09-03T09:35:47;3.50;;;2.50;;
25509;SDS011;13413;52.336;21.200;2022-09-03T09:39:10;5.30;;;3.20;;
25509;SDS011;13413;52.336;21.200;2022-09-03T09:42:30;5.80;;;2.70;;
25509;SDS011;13413;52.336;21.200;2022-09-03T09:45:49;4.30;;;2.60;;
25509;SDS011;13413;52.336;21.200;2022-09-03T09:49:29;4.40;;;1.90;;
25509;SDS011;13413;52.336;21.200;2022-09-03T09:52:59;5.30;;;2.40;;
25509;SDS011;13413;52.336;21.200;2022-09-03T09:56:21;5.60;;;2.30;;
25509;SDS011;13413;52.336;21.200;2022-09-03T09:59:42;3.30;;;2.20;;
25509;SDS011;13413;52.336;21.200;2022-09-03T10:03:05;4.00;;;1.80;;
25509;SDS011;13413;52.336;21.200;2022-09-03T10:06:29;3.00;;;2.30;;
25509;SDS011;13413;52.336;21.200;2022-09-03T10:10:00;4.10;;;2.50;;
25509;SDS011;13413;52.336;21.200;2022-09-03T10:13:25;4.50;;;2.10;;
25509;SDS011;13413;52.336;21.200;2022-09-03T10:16:54;2.80;;;2.00;;
25509;SDS011;13413;52.336;21.200;2022-09-03T10:20:27;4.80;;;1.70;;
25509;SDS011;13413;52.336;21.200;2022-09-03T10:23:55;5.80;;;1.80;;
25509;SDS011;13413;52.336;21.200;2022-09-03T10:27:22;4.00;;;1.80;;
25509;SDS011;13413;52.336;21.200;2022-09-03T10:34:42;2.50;;;1.50;;
25509;SDS011;13413;52.336;21.200;2022-09-03T10:38:09;3.30;;;2.10;;
25509;SDS011;13413;52.336;21.200;2022-09-03T10:41:37;2.20;;;2.00;;
25509;SDS011;13413;52.336;21.200;2022-09-03T10:45:04;3.00;;;2.20;;
25509;SDS011;13413;52.336;21.200;2022-09-03T10:52:31;5.00;;;4.40;;
25509;SDS011;13413;52.336;21.200;2022-09-03T10:56:00;5.40;;;2.60;;
25509;SDS011;13413;52.336;21.200;2022-09-03T10:59:31;14.20;;;4.30;;
25509;SDS011;13413;52.336;21.200;2022-09-03T11:03:04;4.00;;;2.20;;
25509;SDS011;13413;52.336;21.200;2022-09-03T11:06:38;3.30;;;2.20;;
25509;SDS011;13413;52.336;21.200;2022-09-03T11:10:09;6.10;;;3.20;;
25509;SDS011;13413;52.336;21.200;2022-09-03T11:16:54;5.90;;;2.50;;
25509;SDS011;13413;52.336;21.200;2022-09-03T11:20:20;4.00;;;2.30;;
25509;SDS011;13413;52.336;21.200;2022-09-03T11:23:41;3.10;;;2.40;;
25509;SDS011;13413;52.336;21.200;2022-09-03T11:27:04;5.90;;;2.40;;
25509;SDS011;13413;52.336;21.200;2022-09-03T11:30:38;3.00;;;2.20;;
25509;SDS011;13413;52.336;21.200;2022-09-03T11:34:10;2.60;;;2.20;;
25509;SDS011;13413;52.336;21.200;2022-09-03T11:37:32;4.30;;;2.10;;
25509;SDS011;13413;52.336;21.200;2022-09-03T11:41:10;3.10;;;2.50;;
25509;SDS011;13413;52.336;21.200;2022-09-03T11:44:35;4.50;;;2.30;;
25509;SDS011;13413;52.336;21.200;2022-09-03T11:48:18;2.50;;;2.00;;
25509;SDS011;13413;52.336;21.200;2022-09-03T11:51:59;2.90;;;2.30;;
25509;SDS011;13413;52.336;21.200;2022-09-03T11:55:27;5.10;;;2.40;;
25509;SDS011;13413;52.336;21.200;2022-09-03T11:58:56;2.80;;;2.00;;
25509;SDS011;13413;52.336;21.200;2022-09-03T12:02:25;3.10;;;2.00;;
25509;SDS011;13413;52.336;21.200;2022-09-03T12:06:03;4.00;;;2.10;;
25509;SDS011;13413;52.336;21.200;2022-09-03T12:13:38;3.00;;;2.20;;
25509;SDS011;13413;52.336;21.200;2022-09-03T12:17:12;2.80;;;2.40;;
25509;SDS011;13413;52.336;21.200;2022-09-03T12:20:41;4.10;;;2.30;;
25509;SDS011;13413;52.336;21.200;2022-09-03T12:24:05;2.90;;;1.90;;
25509;SDS011;13413;52.336;21.200;2022-09-03T12:27:27;2.90;;;1.50;;
25509;SDS011;13413;52.336;21.200;2022-09-03T12:30:51;2.40;;;1.60;;
25509;SDS011;13413;52.336;21.200;2022-09-03T12:34:12;7.30;;;1.90;;
25509;SDS011;13413;52.336;21.200;2022-09-03T12:37:33;6.00;;;2.70;;
25509;SDS011;13413;52.336;21.200;2022-09-03T12:40:54;2.80;;;2.00;;
25509;SDS011;13413;52.336;21.200;2022-09-03T12:44:18;3.40;;;1.70;;
25509;SDS011;13413;52.336;21.200;2022-09-03T12:47:49;3.60;;;1.80;;
25509;SDS011;13413;52.336;21.200;2022-09-03T12:51:09;5.50;;;1.70;;
25509;SDS011;13413;52.336;21.200;2022-09-03T12:54:28;4.70;;;1.50;;
25509;SDS011;13413;52.336;21.200;2022-09-03T12:57:52;3.40;;;1.30;;
25509;SDS011;13413;52.336;21.200;2022-09-03T13:01:21;2.90;;;1.40;;
25509;SDS011;13413;52.336;21.200;2022-09-03T13:04:45;2.80;;;1.20;;
25509;SDS011;13413;52.336;21.200;2022-09-03T13:08:06;1.30;;;1.10;;
25509;SDS011;13413;52.336;21.200;2022-09-03T13:11:31;3.50;;;1.30;;
25509;SDS011;13413;52.336;21.200;2022-09-03T13:14:51;4.00;;;1.50;;
25509;SDS011;13413;52.336;21.200;2022-09-03T13:18:27;2.30;;;1.50;;
25509;SDS011;13413;52.336;21.200;2022-09-03T13:25:32;3.60;;;1.20;;
25509;SDS011;13413;52.336;21.200;2022-09-03T13:29:09;1.30;;;1.20;;
25509;SDS011;13413;52.336;21.200;2022-09-03T13:32:45;8.40;;;2.00;;
25509;SDS011;13413;52.336;21.200;2022-09-03T13:36:14;4.20;;;1.80;;
25509;SDS011;13413;52.336;21.200;2022-09-03T13:39:37;2.30;;;1.60;;
25509;SDS011;13413;52.336;21.200;2022-09-03T13:43:02;2.20;;;1.30;;
25509;SDS011;13413;52.336;21.200;2022-09-03T13:46:28;2.20;;;1.30;;
25509;SDS011;13413;52.336;21.200;2022-09-03T13:49:57;2.30;;;1.40;;
25509;SDS011;13413;52.336;21.200;2022-09-03T13:53:29;5.20;;;1.60;;
25509;SDS011;13413;52.336;21.200;2022-09-03T13:56:56;4.30;;;1.40;;
25509;SDS011;13413;52.336;21.200;2022-09-03T14:00:23;3.00;;;1.60;;
25509;SDS011;13413;52.336;21.200;2022-09-03T14:03:49;2.40;;;1.70;;
25509;SDS011;13413;52.336;21.200;2022-09-03T14:07:14;4.30;;;1.80;;
25509;SDS011;13413;52.336;21.200;2022-09-03T14:10:43;1.80;;;1.30;;
25509;SDS011;13413;52.336;21.200;2022-09-03T14:14:12;3.40;;;1.20;;
25509;SDS011;13413;52.336;21.200;2022-09-03T14:17:41;1.60;;;1.20;;
25509;SDS011;13413;52.336;21.200;2022-09-03T14:21:08;2.50;;;1.20;;
25509;SDS011;13413;52.336;21.200;2022-09-03T14:24:36;2.10;;;1.40;;
25509;SDS011;13413;52.336;21.200;2022-09-03T14:28:14;1.80;;;1.20;;
25509;SDS011;13413;52.336;21.200;2022-09-03T14:31:52;1.90;;;1.30;;
25509;SDS011;13413;52.336;21.200;2022-09-03T14:35:27;5.40;;;2.00;;
25509;SDS011;13413;52.336;21.200;2022-09-03T14:39:05;1.90;;;1.30;;
25509;SDS011;13413;52.336;21.200;2022-09-03T14:42:52;1.80;;;1.50;;
25509;SDS011;13413;52.336;21.200;2022-09-03T14:46:24;2.20;;;1.80;;
25509;SDS011;13413;52.336;21.200;2022-09-03T14:53:52;2.70;;;1.40;;
25509;SDS011;13413;52.336;21.200;2022-09-03T14:57:34;2.90;;;1.20;;
25509;SDS011;13413;52.336;21.200;2022-09-03T15:01:09;4.60;;;1.70;;
25509;SDS011;13413;52.336;21.200;2022-09-03T15:04:49;1.70;;;1.30;;
25509;SDS011;13413;52.336;21.200;2022-09-03T15:08:19;3.70;;;1.50;;
25509;SDS011;13413;52.336;21.200;2022-09-03T15:11:54;3.40;;;1.30;;
25509;SDS011;13413;52.336;21.200;2022-09-03T15:15:18;2.90;;;1.40;;
25509;SDS011;13413;52.336;21.200;2022-09-03T15:18:44;2.80;;;1.50;;
25509;SDS011;13413;52.336;21.200;2022-09-03T15:22:18;1.30;;;1.20;;
25509;SDS011;13413;52.336;21.200;2022-09-03T15:29:40;1.80;;;1.30;;
25509;SDS011;13413;52.336;21.200;2022-09-03T15:33:12;4.50;;;1.20;;
25509;SDS011;13413;52.336;21.200;2022-09-03T15:36:40;4.00;;;1.60;;
25509;SDS011;13413;52.336;21.200;2022-09-03T15:40:06;4.50;;;2.00;;
25509;SDS011;13413;52.336;21.200;2022-09-03T15:43:34;1.80;;;1.50;;
25509;SDS011;13413;52.336;21.200;2022-09-03T15:46:55;3.10;;;1.70;;
25509;SDS011;13413;52.336;21.200;2022-09-03T15:50:23;2.50;;;1.50;;
25509;SDS011;13413;52.336;21.200;2022-09-03T15:53:51;2.90;;;1.40;;
25509;SDS011;13413;52.336;21.200;2022-09-03T15:57:16;3.70;;;1.60;;
25509;SDS011;13413;52.336;21.200;2022-09-03T16:00:49;3.30;;;1.50;;
25509;SDS011;13413;52.336;21.200;2022-09-03T16:04:21;4.30;;;1.70;;
25509;SDS011;13413;52.336;21.200;2022-09-03T16:11:37;2.70;;;1.70;;
25509;SDS011;13413;52.336;21.200;2022-09-03T16:15:08;3.40;;;1.60;;
25509;SDS011;13413;52.336;21.200;2022-09-03T16:18:31;4.50;;;1.40;;
25509;SDS011;13413;52.336;21.200;2022-09-03T16:25:17;2.30;;;1.50;;
25509;SDS011;13413;52.336;21.200;2022-09-03T16:28:40;5.30;;;2.50;;
25509;SDS011;13413;52.336;21.200;2022-09-03T16:32:09;3.00;;;1.90;;
25509;SDS011;13413;52.336;21.200;2022-09-03T16:35:38;6.80;;;2.50;;
25509;SDS011;13413;52.336;21.200;2022-09-03T16:39:11;3.60;;;1.80;;
25509;SDS011;13413;52.336;21.200;2022-09-03T16:42:41;5.70;;;2.00;;
25509;SDS011;13413;52.336;21.200;2022-09-03T16:46:13;7.60;;;1.80;;
25509;SDS011;13413;52.336;21.200;2022-09-03T16:49:44;6.20;;;1.90;;
25509;SDS011;13413;52.336;21.200;2022-09-03T16:53:18;4.80;;;1.90;;
25509;SDS011;13413;52.336;21.200;2022-09-03T16:56:57;3.60;;;1.80;;
25509;SDS011;13413;52.336;21.200;2022-09-03T17:00:25;6.60;;;2.10;;
25509;SDS011;13413;52.336;21.200;2022-09-03T17:04:05;4.10;;;2.50;;
25509;SDS011;13413;52.336;21.200;2022-09-03T17:07:49;10.00;;;2.30;;
25509;SDS011;13413;52.336;21.200;2022-09-03T17:11:31;7.10;;;2.40;;
25509;SDS011;13413;52.336;21.200;2022-09-03T17:15:08;5.30;;;3.00;;
25509;SDS011;13413;52.336;21.200;2022-09-03T17:18:40;4.20;;;2.40;;
25509;SDS011;13413;52.336;21.200;2022-09-03T17:22:09;4.90;;;2.50;;
25509;SDS011;13413;52.336;21.200;2022-09-03T17:25:38;7.30;;;2.70;;
25509;SDS011;13413;52.336;21.200;2022-09-03T17:29:13;6.10;;;2.80;;
25509;SDS011;13413;52.336;21.200;2022-09-03T17:32:49;7.30;;;3.50;;
25509;SDS011;13413;52.336;21.200;2022-09-03T17:36:47;14.00;;;3.00;;
25509;SDS011;13413;52.336;21.200;2022-09-03T17:40:19;19.80;;;4.90;;
25509;SDS011;13413;52.336;21.200;2022-09-03T17:43:46;9.90;;;3.20;;
25509;SDS011;13413;52.336;21.200;2022-09-03T17:47:23;10.80;;;3.70;;
25509;SDS011;13413;52.336;21.200;2022-09-03T17:51:03;5.70;;;2.90;;
25509;SDS011;13413;52.336;21.200;2022-09-03T17:54:31;7.70;;;3.10;;
25509;SDS011;13413;52.336;21.200;2022-09-03T17:57:58;6.50;;;3.20;;
25509;SDS011;13413;52.336;21.200;2022-09-03T18:01:25;5.70;;;2.90;;
25509;SDS011;13413;52.336;21.200;2022-09-03T18:04:51;120.60;;;14.80;;
25509;SDS011;13413;52.336;21.200;2022-09-03T18:08:16;8.40;;;3.50;;
25509;SDS011;13413;52.336;21.200;2022-09-03T18:15:03;9.60;;;2.80;;
25509;SDS011;13413;52.336;21.200;2022-09-03T18:18:26;3.20;;;2.90;;
25509;SDS011;13413;52.336;21.200;2022-09-03T18:21:47;9.40;;;3.50;;
25509;SDS011;13413;52.336;21.200;2022-09-03T18:25:07;6.90;;;3.70;;
25509;SDS011;13413;52.336;21.200;2022-09-03T18:28:36;5.20;;;3.40;;
25509;SDS011;13413;52.336;21.200;2022-09-03T18:31:59;9.70;;;3.90;;
25509;SDS011;13413;52.336;21.200;2022-09-03T18:35:28;6.00;;;3.90;;
25509;SDS011;13413;52.336;21.200;2022-09-03T18:38:49;8.80;;;4.90;;
25509;SDS011;13413;52.336;21.200;2022-09-03T18:42:13;9.30;;;5.00;;
25509;SDS011;13413;52.336;21.200;2022-09-03T18:45:41;14.80;;;5.90;;
25509;SDS011;13413;52.336;21.200;2022-09-03T18:49:06;14.20;;;6.10;;
25509;SDS011;13413;52.336;21.200;2022-09-03T18:52:34;12.80;;;5.70;;
25509;SDS011;13413;52.336;21.200;2022-09-03T18:56:06;10.30;;;6.30;;
25509;SDS011;13413;52.336;21.200;2022-09-03T18:59:46;11.40;;;5.90;;
25509;SDS011;13413;52.336;21.200;2022-09-03T19:03:25;13.10;;;6.70;;
25509;SDS011;13413;52.336;21.200;2022-09-03T19:06:57;11.30;;;6.90;;
25509;SDS011;13413;52.336;21.200;2022-09-03T19:10:25;17.20;;;7.40;;
25509;SDS011;13413;52.336;21.200;2022-09-03T19:13:55;12.80;;;7.30;;
25509;SDS011;13413;52.336;21.200;2022-09-03T19:17:26;11.70;;;7.00;;
25509;SDS011;13413;52.336;21.200;2022-09-03T19:24:21;14.80;;;7.80;;
25509;SDS011;13413;52.336;21.200;2022-09-03T19:27:49;13.60;;;9.10;;
25509;SDS011;13413;52.336;21.200;2022-09-03T19:35:01;11.80;;;6.90;;
25509;SDS011;13413;52.336;21.200;2022-09-03T19:38:35;13.00;;;8.00;;
25509;SDS011;13413;52.336;21.200;2022-09-03T19:42:08;15.50;;;8.90;;
25509;SDS011;13413;52.336;21.200;2022-09-03T19:45:37;17.30;;;9.90;;
25509;SDS011;13413;52.336;21.200;2022-09-03T19:49:08;25.50;;;11.80;;
25509;SDS011;13413;52.336;21.200;2022-09-03T19:52:40;18.00;;;11.00;;
25509;SDS011;13413;52.336;21.200;2022-09-03T19:56:08;18.80;;;10.80;;
25509;SDS011;13413;52.336;21.200;2022-09-03T19:59:35;17.20;;;9.60;;
25509;SDS011;13413;52.336;21.200;2022-09-03T20:06:22;19.30;;;9.00;;
25509;SDS011;13413;52.336;21.200;2022-09-03T20:09:42;13.20;;;7.60;;
25509;SDS011;13413;52.336;21.200;2022-09-03T20:13:06;16.70;;;8.80;;
25509;SDS011;13413;52.336;21.200;2022-09-03T20:16:28;17.60;;;9.10;;
25509;SDS011;13413;52.336;21.200;2022-09-03T20:19:58;12.80;;;7.80;;
25509;SDS011;13413;52.336;21.200;2022-09-03T20:23:26;12.30;;;7.90;;
25509;SDS011;13413;52.336;21.200;2022-09-03T20:26:51;13.70;;;7.90;;
25509;SDS011;13413;52.336;21.200;2022-09-03T20:30:20;15.70;;;8.70;;
25509;SDS011;13413;52.336;21.200;2022-09-03T20:33:46;18.90;;;9.00;;
25509;SDS011;13413;52.336;21.200;2022-09-03T20:37:20;17.70;;;9.40;;
25509;SDS011;13413;52.336;21.200;2022-09-03T20:40:48;18.20;;;8.70;;
25509;SDS011;13413;52.336;21.200;2022-09-03T20:44:17;20.50;;;9.90;;
25509;SDS011;13413;52.336;21.200;2022-09-03T20:47:50;22.40;;;11.10;;
25509;SDS011;13413;52.336;21.200;2022-09-03T20:51:19;18.80;;;10.30;;
25509;SDS011;13413;52.336;21.200;2022-09-03T20:54:44;17.90;;;10.50;;
25509;SDS011;13413;52.336;21.200;2022-09-03T20:58:15;19.60;;;10.30;;
25509;SDS011;13413;52.336;21.200;2022-09-03T21:01:43;17.90;;;11.10;;
25509;SDS011;13413;52.336;21.200;2022-09-03T21:05:11;20.10;;;10.90;;
25509;SDS011;13413;52.336;21.200;2022-09-03T21:08:43;24.70;;;12.20;;
25509;SDS011;13413;52.336;21.200;2022-09-03T21:12:15;26.50;;;13.40;;
25509;SDS011;13413;52.336;21.200;2022-09-03T21:15:47;34.40;;;16.50;;
25509;SDS011;13413;52.336;21.200;2022-09-03T21:19:16;28.80;;;14.80;;
25509;SDS011;13413;52.336;21.200;2022-09-03T21:22:41;31.90;;;15.20;;
25509;SDS011;13413;52.336;21.200;2022-09-03T21:26:12;29.60;;;15.30;;
25509;SDS011;13413;52.336;21.200;2022-09-03T21:29:38;25.20;;;15.00;;